sensor_id;sensor_type;location;lat;lon;timestamp;temperature;humidity
19522;DHT22;9905;52.126;5.596;2023-02-03T00:00:04;8.80;99.90
19522;DHT22;9905;52.126;5.596;2023-02-03T00:02:32;8.80;99.90
19522;DHT22;9905;52.126;5.596;2023-02-03T00:04:59;8.80;99.90
19522;DHT22;9905;52.126;5.596;2023-02-03T00:07:26;8.80;99.90
19522;DHT22;9905;52.126;5.596;2023-02-03T00:09:53;8.80;99.90
19522;DHT22;9905;52.126;5.596;2023-02-03T00:12:21;8.90;99.90
19522;DHT22;9905;52.126;5.596;2023-02-03T00:14:48;8.80;99.90
19522;DHT22;9905;52.126;5.596;2023-02-03T00:17:16;8.80;99.90
19522;DHT22;9905;52.126;5.596;2023-02-03T00:19:44;8.80;99.90
19522;DHT22;9905;52.126;5.596;2023-02-03T00:22:11;8.90;99.90
19522;DHT22;9905;52.126;5.596;2023-02-03T00:24:38;8.80;99.90
19522;DHT22;9905;52.126;5.596;2023-02-03T00:27:05;8.90;99.90
19522;DHT22;9905;52.126;5.596;2023-02-03T00:29:32;8.80;99.90
19522;DHT22;9905;52.126;5.596;2023-02-03T00:31:58;8.80;99.90
19522;DHT22;9905;52.126;5.596;2023-02-03T00:34:27;8.90;99.90
19522;DHT22;9905;52.126;5.596;2023-02-03T00:36:55;8.90;99.90
19522;DHT22;9905;52.126;5.596;2023-02-03T00:39:22;8.80;99.90
19522;DHT22;9905;52.126;5.596;2023-02-03T00:41:49;8.80;99.90
19522;DHT22;9905;52.126;5.596;2023-02-03T00:44:16;8.80;99.90
19522;DHT22;9905;52.126;5.596;2023-02-03T00:46:43;8.90;99.90
19522;DHT22;9905;52.126;5.596;2023-02-03T00:49:09;8.80;99.90
19522;DHT22;9905;52.126;5.596;2023-02-03T00:51:36;8.80;99.90
19522;DHT22;9905;52.126;5.596;2023-02-03T00:54:04;8.80;99.90
19522;DHT22;9905;52.126;5.596;2023-02-03T00:56:31;8.80;99.90
19522;DHT22;9905;52.126;5.596;2023-02-03T00:58:58;8.80;99.90
19522;DHT22;9905;52.126;5.596;2023-02-03T01:01:25;8.90;99.90
19522;DHT22;9905;52.126;5.596;2023-02-03T01:03:53;8.80;99.90
19522;DHT22;9905;52.126;5.596;2023-02-03T01:06:21;8.80;99.90
19522;DHT22;9905;52.126;5.596;2023-02-03T01:08:48;8.80;99.90
19522;DHT22;9905;52.126;5.596;2023-02-03T01:11:18;8.80;99.90
19522;DHT22;9905;52.126;5.596;2023-02-03T01:13:46;8.80;99.90
19522;DHT22;9905;52.126;5.596;2023-02-03T01:16:16;8.80;99.90
19522;DHT22;9905;52.126;5.596;2023-02-03T01:18:44;8.80;99.90
19522;DHT22;9905;52.126;5.596;2023-02-03T01:21:12;8.80;99.90
19522;DHT22;9905;52.126;5.596;2023-02-03T01:23:39;8.80;99.90
19522;DHT22;9905;52.126;5.596;2023-02-03T01:26:08;8.80;99.90
19522;DHT22;9905;52.126;5.596;2023-02-03T01:28:36;8.80;99.90
19522;DHT22;9905;52.126;5.596;2023-02-03T01:31:11;8.80;99.90
19522;DHT22;9905;52.126;5.596;2023-02-03T01:33:39;8.80;99.90
19522;DHT22;9905;52.126;5.596;2023-02-03T01:36:07;8.80;99.90
19522;DHT22;9905;52.126;5.596;2023-02-03T01:38:35;8.80;99.90
19522;DHT22;9905;52.126;5.596;2023-02-03T01:41:04;8.80;99.90
19522;DHT22;9905;52.126;5.596;2023-02-03T01:43:33;8.80;99.90
19522;DHT22;9905;52.126;5.596;2023-02-03T01:46:11;8.80;99.90
19522;DHT22;9905;52.126;5.596;2023-02-03T01:48:41;8.80;99.90
19522;DHT22;9905;52.126;5.596;2023-02-03T01:51:08;8.80;99.90
19522;DHT22;9905;52.126;5.596;2023-02-03T01:53:35;8.80;99.90
19522;DHT22;9905;52.126;5.596;2023-02-03T01:56:04;8.80;99.90
19522;DHT22;9905;52.126;5.596;2023-02-03T01:58:35;8.80;99.90
19522;DHT22;9905;52.126;5.596;2023-02-03T02:01:04;8.90;99.90
19522;DHT22;9905;52.126;5.596;2023-02-03T02:03:35;8.80;99.90
19522;DHT22;9905;52.126;5.596;2023-02-03T02:06:05;8.90;99.90
19522;DHT22;9905;52.126;5.596;2023-02-03T02:08:33;8.90;99.90
19522;DHT22;9905;52.126;5.596;2023-02-03T02:11:00;8.90;99.90
19522;DHT22;9905;52.126;5.596;2023-02-03T02:13:29;8.80;99.90
19522;DHT22;9905;52.126;5.596;2023-02-03T02:16:01;8.90;99.90
19522;DHT22;9905;52.126;5.596;2023-02-03T02:19:08;8.90;99.90
19522;DHT22;9905;52.126;5.596;2023-02-03T02:21:55;8.90;99.90
19522;DHT22;9905;52.126;5.596;2023-02-03T02:24:43;8.90;99.90
19522;DHT22;9905;52.126;5.596;2023-02-03T02:27:39;8.90;99.90
19522;DHT22;9905;52.126;5.596;2023-02-03T02:30:35;9.00;99.90
19522;DHT22;9905;52.126;5.596;2023-02-03T02:33:13;8.90;99.90
19522;DHT22;9905;52.126;5.596;2023-02-03T02:35:49;9.00;99.90
19522;DHT22;9905;52.126;5.596;2023-02-03T02:38:28;9.00;99.90
19522;DHT22;9905;52.126;5.596;2023-02-03T02:41:05;9.00;99.90
19522;DHT22;9905;52.126;5.596;2023-02-03T02:43:39;9.00;99.90
19522;DHT22;9905;52.126;5.596;2023-02-03T02:46:09;9.00;99.90
19522;DHT22;9905;52.126;5.596;2023-02-03T02:48:41;9.00;99.90
19522;DHT22;9905;52.126;5.596;2023-02-03T02:51:12;9.00;99.90
19522;DHT22;9905;52.126;5.596;2023-02-03T02:53:43;9.00;99.90
19522;DHT22;9905;52.126;5.596;2023-02-03T02:56:11;9.00;99.90
19522;DHT22;9905;52.126;5.596;2023-02-03T02:58:42;9.00;99.90
19522;DHT22;9905;52.126;5.596;2023-02-03T03:01:12;9.00;99.90
19522;DHT22;9905;52.126;5.596;2023-02-03T03:03:41;9.00;99.90
19522;DHT22;9905;52.126;5.596;2023-02-03T03:06:13;9.00;99.90
19522;DHT22;9905;52.126;5.596;2023-02-03T03:08:44;9.00;99.90
19522;DHT22;9905;52.126;5.596;2023-02-03T03:11:12;9.00;99.90
19522;DHT22;9905;52.126;5.596;2023-02-03T03:13:44;9.10;99.90
19522;DHT22;9905;52.126;5.596;2023-02-03T03:16:14;9.10;99.90
19522;DHT22;9905;52.126;5.596;2023-02-03T03:18:45;9.10;99.90
19522;DHT22;9905;52.126;5.596;2023-02-03T03:21:18;9.10;99.90
19522;DHT22;9905;52.126;5.596;2023-02-03T03:23:50;9.00;99.90
19522;DHT22;9905;52.126;5.596;2023-02-03T03:26:23;9.00;99.90
19522;DHT22;9905;52.126;5.596;2023-02-03T03:28:57;9.00;99.90
19522;DHT22;9905;52.126;5.596;2023-02-03T03:31:25;9.10;99.90
19522;DHT22;9905;52.126;5.596;2023-02-03T03:33:53;9.10;99.90
19522;DHT22;9905;52.126;5.596;2023-02-03T03:36:23;9.00;99.90
19522;DHT22;9905;52.126;5.596;2023-02-03T03:38:55;9.10;99.90
19522;DHT22;9905;52.126;5.596;2023-02-03T03:41:29;9.10;99.90
19522;DHT22;9905;52.126;5.596;2023-02-03T03:44:00;9.10;99.90
19522;DHT22;9905;52.126;5.596;2023-02-03T03:46:32;9.10;99.90
19522;DHT22;9905;52.126;5.596;2023-02-03T03:49:03;9.10;99.90
19522;DHT22;9905;52.126;5.596;2023-02-03T03:51:33;9.10;99.90
19522;DHT22;9905;52.126;5.596;2023-02-03T03:54:04;9.10;99.90
19522;DHT22;9905;52.126;5.596;2023-02-03T03:56:35;9.10;99.90
19522;DHT22;9905;52.126;5.596;2023-02-03T03:59:06;9.10;99.90
19522;DHT22;9905;52.126;5.596;2023-02-03T04:01:34;9.10;99.90
19522;DHT22;9905;52.126;5.596;2023-02-03T04:04:07;9.10;99.90
19522;DHT22;9905;52.126;5.596;2023-02-03T04:06:36;9.20;99.90
19522;DHT22;9905;52.126;5.596;2023-02-03T04:09:03;9.10;99.90
19522;DHT22;9905;52.126;5.596;2023-02-03T04:11:30;9.10;99.90
19522;DHT22;9905;52.126;5.596;2023-02-03T04:14:14;9.20;99.90
19522;DHT22;9905;52.126;5.596;2023-02-03T04:16:41;9.20;99.90
19522;DHT22;9905;52.126;5.596;2023-02-03T04:19:09;9.20;99.90
19522;DHT22;9905;52.126;5.596;2023-02-03T04:21:36;9.20;99.90
19522;DHT22;9905;52.126;5.596;2023-02-03T04:24:03;9.20;99.90
19522;DHT22;9905;52.126;5.596;2023-02-03T04:26:30;9.20;99.90
19522;DHT22;9905;52.126;5.596;2023-02-03T04:28:57;9.20;99.90
19522;DHT22;9905;52.126;5.596;2023-02-03T04:31:24;9.20;99.90
19522;DHT22;9905;52.126;5.596;2023-02-03T04:33:50;9.20;99.90
19522;DHT22;9905;52.126;5.596;2023-02-03T04:36:19;9.20;99.90
19522;DHT22;9905;52.126;5.596;2023-02-03T04:38:47;9.20;99.90
19522;DHT22;9905;52.126;5.596;2023-02-03T04:41:14;9.20;99.90
19522;DHT22;9905;52.126;5.596;2023-02-03T04:43:41;9.20;99.90
19522;DHT22;9905;52.126;5.596;2023-02-03T04:46:08;9.20;99.90
19522;DHT22;9905;52.126;5.596;2023-02-03T04:48:35;9.20;99.90
19522;DHT22;9905;52.126;5.596;2023-02-03T04:51:03;9.20;99.90
19522;DHT22;9905;52.126;5.596;2023-02-03T04:53:33;9.20;99.90
19522;DHT22;9905;52.126;5.596;2023-02-03T04:55:59;9.20;99.90
19522;DHT22;9905;52.126;5.596;2023-02-03T04:58:26;9.30;99.90
19522;DHT22;9905;52.126;5.596;2023-02-03T05:00:53;9.30;99.90
19522;DHT22;9905;52.126;5.596;2023-02-03T05:03:20;9.20;99.90
19522;DHT22;9905;52.126;5.596;2023-02-03T05:05:48;9.20;99.90
19522;DHT22;9905;52.126;5.596;2023-02-03T05:08:15;9.30;99.90
19522;DHT22;9905;52.126;5.596;2023-02-03T05:10:43;9.30;99.90
19522;DHT22;9905;52.126;5.596;2023-02-03T05:13:10;9.30;99.90
19522;DHT22;9905;52.126;5.596;2023-02-03T05:15:37;9.30;99.90
19522;DHT22;9905;52.126;5.596;2023-02-03T05:18:04;9.40;99.90
19522;DHT22;9905;52.126;5.596;2023-02-03T05:20:31;9.30;99.90
19522;DHT22;9905;52.126;5.596;2023-02-03T05:22:57;9.30;99.90
19522;DHT22;9905;52.126;5.596;2023-02-03T05:25:25;9.30;99.90
19522;DHT22;9905;52.126;5.596;2023-02-03T05:27:53;9.40;99.90
19522;DHT22;9905;52.126;5.596;2023-02-03T05:30:20;9.40;99.90
19522;DHT22;9905;52.126;5.596;2023-02-03T05:32:48;9.40;99.90
19522;DHT22;9905;52.126;5.596;2023-02-03T05:35:15;9.40;99.90
19522;DHT22;9905;52.126;5.596;2023-02-03T05:37:43;9.40;99.90
19522;DHT22;9905;52.126;5.596;2023-02-03T05:40:11;9.40;99.90
19522;DHT22;9905;52.126;5.596;2023-02-03T05:42:57;9.40;99.90
19522;DHT22;9905;52.126;5.596;2023-02-03T05:45:23;9.40;99.90
19522;DHT22;9905;52.126;5.596;2023-02-03T05:47:50;9.50;99.90
19522;DHT22;9905;52.126;5.596;2023-02-03T05:50:17;9.50;99.90
19522;DHT22;9905;52.126;5.596;2023-02-03T05:52:44;9.50;99.90
19522;DHT22;9905;52.126;5.596;2023-02-03T05:55:11;9.50;99.90
19522;DHT22;9905;52.126;5.596;2023-02-03T05:57:38;9.50;99.90
19522;DHT22;9905;52.126;5.596;2023-02-03T06:00:08;9.50;99.90
19522;DHT22;9905;52.126;5.596;2023-02-03T06:02:34;9.50;99.90
19522;DHT22;9905;52.126;5.596;2023-02-03T06:05:01;9.60;99.90
19522;DHT22;9905;52.126;5.596;2023-02-03T06:07:28;9.60;99.90
19522;DHT22;9905;52.126;5.596;2023-02-03T06:09:55;9.60;99.90
19522;DHT22;9905;52.126;5.596;2023-02-03T06:12:21;9.50;99.90
19522;DHT22;9905;52.126;5.596;2023-02-03T06:14:48;9.60;99.90
19522;DHT22;9905;52.126;5.596;2023-02-03T06:17:16;9.60;99.90
19522;DHT22;9905;52.126;5.596;2023-02-03T06:19:43;9.60;99.90
19522;DHT22;9905;52.126;5.596;2023-02-03T06:22:09;9.60;99.90
19522;DHT22;9905;52.126;5.596;2023-02-03T06:24:36;9.50;99.90
19522;DHT22;9905;52.126;5.596;2023-02-03T06:27:03;9.60;99.90
19522;DHT22;9905;52.126;5.596;2023-02-03T06:29:30;9.50;99.90
19522;DHT22;9905;52.126;5.596;2023-02-03T06:31:56;9.60;99.90
19522;DHT22;9905;52.126;5.596;2023-02-03T06:34:25;9.60;99.90
19522;DHT22;9905;52.126;5.596;2023-02-03T06:36:51;9.60;99.90
19522;DHT22;9905;52.126;5.596;2023-02-03T06:39:18;9.60;99.90
19522;DHT22;9905;52.126;5.596;2023-02-03T06:41:45;9.60;99.90
19522;DHT22;9905;52.126;5.596;2023-02-03T06:44:11;9.60;99.90
19522;DHT22;9905;52.126;5.596;2023-02-03T06:46:38;9.60;99.90
19522;DHT22;9905;52.126;5.596;2023-02-03T06:49:05;9.60;99.90
19522;DHT22;9905;52.126;5.596;2023-02-03T06:51:33;9.60;99.90
19522;DHT22;9905;52.126;5.596;2023-02-03T06:54:00;9.60;99.90
19522;DHT22;9905;52.126;5.596;2023-02-03T06:56:27;9.60;99.90
19522;DHT22;9905;52.126;5.596;2023-02-03T06:58:54;9.60;99.90
19522;DHT22;9905;52.126;5.596;2023-02-03T07:01:22;9.60;99.90
19522;DHT22;9905;52.126;5.596;2023-02-03T07:03:50;9.60;99.90
19522;DHT22;9905;52.126;5.596;2023-02-03T07:06:17;9.60;99.90
19522;DHT22;9905;52.126;5.596;2023-02-03T07:08:45;9.60;99.90
19522;DHT22;9905;52.126;5.596;2023-02-03T07:11:12;9.60;99.90
19522;DHT22;9905;52.126;5.596;2023-02-03T07:13:39;9.60;99.90
19522;DHT22;9905;52.126;5.596;2023-02-03T07:16:06;9.60;99.90
19522;DHT22;9905;52.126;5.596;2023-02-03T07:18:32;9.50;99.90
19522;DHT22;9905;52.126;5.596;2023-02-03T07:20:59;9.60;99.90
19522;DHT22;9905;52.126;5.596;2023-02-03T07:23:26;9.60;99.90
19522;DHT22;9905;52.126;5.596;2023-02-03T07:25:58;9.50;99.90
19522;DHT22;9905;52.126;5.596;2023-02-03T07:28:24;9.50;99.90
19522;DHT22;9905;52.126;5.596;2023-02-03T07:30:51;9.50;99.90
19522;DHT22;9905;52.126;5.596;2023-02-03T07:33:18;9.60;99.90
19522;DHT22;9905;52.126;5.596;2023-02-03T07:35:50;9.60;99.90
19522;DHT22;9905;52.126;5.596;2023-02-03T07:38:17;9.60;99.90
19522;DHT22;9905;52.126;5.596;2023-02-03T07:40:44;9.60;99.90
19522;DHT22;9905;52.126;5.596;2023-02-03T07:43:12;9.60;99.90
19522;DHT22;9905;52.126;5.596;2023-02-03T07:45:39;9.60;99.90
19522;DHT22;9905;52.126;5.596;2023-02-03T07:48:06;9.60;99.90
19522;DHT22;9905;52.126;5.596;2023-02-03T07:50:33;9.60;99.90
19522;DHT22;9905;52.126;5.596;2023-02-03T07:53:00;9.60;99.90
19522;DHT22;9905;52.126;5.596;2023-02-03T07:55:27;9.60;99.90
19522;DHT22;9905;52.126;5.596;2023-02-03T07:57:54;9.60;99.90
19522;DHT22;9905;52.126;5.596;2023-02-03T08:00:24;9.60;99.90
19522;DHT22;9905;52.126;5.596;2023-02-03T08:02:51;9.60;99.90
19522;DHT22;9905;52.126;5.596;2023-02-03T08:05:18;9.60;99.90
19522;DHT22;9905;52.126;5.596;2023-02-03T08:07:45;9.60;99.90
19522;DHT22;9905;52.126;5.596;2023-02-03T08:10:13;9.60;99.90
19522;DHT22;9905;52.126;5.596;2023-02-03T08:12:42;9.60;99.90
19522;DHT22;9905;52.126;5.596;2023-02-03T08:15:10;9.60;99.90
19522;DHT22;9905;52.126;5.596;2023-02-03T08:17:38;9.60;99.90
19522;DHT22;9905;52.126;5.596;2023-02-03T08:20:07;9.60;99.90
19522;DHT22;9905;52.126;5.596;2023-02-03T08:22:34;9.60;99.90
19522;DHT22;9905;52.126;5.596;2023-02-03T08:25:01;9.60;99.90
19522;DHT22;9905;52.126;5.596;2023-02-03T08:27:28;9.60;99.90
19522;DHT22;9905;52.126;5.596;2023-02-03T08:29:57;9.70;99.90
19522;DHT22;9905;52.126;5.596;2023-02-03T08:32:24;9.70;99.90
19522;DHT22;9905;52.126;5.596;2023-02-03T08:34:53;9.70;99.90
19522;DHT22;9905;52.126;5.596;2023-02-03T08:37:22;9.70;99.90
19522;DHT22;9905;52.126;5.596;2023-02-03T08:39:50;9.70;99.90
19522;DHT22;9905;52.126;5.596;2023-02-03T08:42:17;9.70;99.90
19522;DHT22;9905;52.126;5.596;2023-02-03T08:44:44;9.70;99.90
19522;DHT22;9905;52.126;5.596;2023-02-03T08:47:13;9.80;99.90
19522;DHT22;9905;52.126;5.596;2023-02-03T08:49:40;9.80;99.90
19522;DHT22;9905;52.126;5.596;2023-02-03T08:52:10;9.80;99.90
19522;DHT22;9905;52.126;5.596;2023-02-03T08:54:38;9.80;99.90
19522;DHT22;9905;52.126;5.596;2023-02-03T08:57:04;9.80;99.90
19522;DHT22;9905;52.126;5.596;2023-02-03T08:59:31;9.80;99.90
19522;DHT22;9905;52.126;5.596;2023-02-03T09:02:00;9.90;99.90
19522;DHT22;9905;52.126;5.596;2023-02-03T09:04:28;9.90;99.90
19522;DHT22;9905;52.126;5.596;2023-02-03T09:06:55;9.90;99.90
19522;DHT22;9905;52.126;5.596;2023-02-03T09:09:24;9.90;99.90
19522;DHT22;9905;52.126;5.596;2023-02-03T09:11:51;9.90;99.90
19522;DHT22;9905;52.126;5.596;2023-02-03T09:14:19;10.00;99.90
19522;DHT22;9905;52.126;5.596;2023-02-03T09:16:46;10.00;99.90
19522;DHT22;9905;52.126;5.596;2023-02-03T09:19:13;10.00;99.90
19522;DHT22;9905;52.126;5.596;2023-02-03T09:21:40;10.00;99.90
19522;DHT22;9905;52.126;5.596;2023-02-03T09:24:07;10.00;99.90
19522;DHT22;9905;52.126;5.596;2023-02-03T09:26:35;10.00;99.90
19522;DHT22;9905;52.126;5.596;2023-02-03T09:29:02;10.00;99.90
19522;DHT22;9905;52.126;5.596;2023-02-03T09:31:29;10.10;99.90
19522;DHT22;9905;52.126;5.596;2023-02-03T09:33:55;10.10;99.90
19522;DHT22;9905;52.126;5.596;2023-02-03T09:36:23;10.10;99.90
19522;DHT22;9905;52.126;5.596;2023-02-03T09:38:50;10.10;99.90
19522;DHT22;9905;52.126;5.596;2023-02-03T09:41:28;10.10;99.90
19522;DHT22;9905;52.126;5.596;2023-02-03T09:44:06;10.10;99.90
19522;DHT22;9905;52.126;5.596;2023-02-03T09:46:40;10.20;99.90
19522;DHT22;9905;52.126;5.596;2023-02-03T09:49:12;10.20;99.90
19522;DHT22;9905;52.126;5.596;2023-02-03T09:51:43;10.10;99.90
19522;DHT22;9905;52.126;5.596;2023-02-03T09:54:16;10.20;99.90
19522;DHT22;9905;52.126;5.596;2023-02-03T09:56:43;10.20;99.90
19522;DHT22;9905;52.126;5.596;2023-02-03T09:59:16;10.20;99.90
19522;DHT22;9905;52.126;5.596;2023-02-03T10:01:48;10.20;99.90
19522;DHT22;9905;52.126;5.596;2023-02-03T10:04:25;10.20;99.90
19522;DHT22;9905;52.126;5.596;2023-02-03T10:06:59;10.20;99.90
19522;DHT22;9905;52.126;5.596;2023-02-03T10:09:40;10.20;99.90
19522;DHT22;9905;52.126;5.596;2023-02-03T10:12:29;10.20;99.90
19522;DHT22;9905;52.126;5.596;2023-02-03T10:15:29;10.20;99.90
19522;DHT22;9905;52.126;5.596;2023-02-03T10:17:59;10.30;99.90
19522;DHT22;9905;52.126;5.596;2023-02-03T10:20:33;10.30;99.90
19522;DHT22;9905;52.126;5.596;2023-02-03T10:23:05;10.30;99.90
19522;DHT22;9905;52.126;5.596;2023-02-03T10:25:35;10.30;99.90
19522;DHT22;9905;52.126;5.596;2023-02-03T10:28:17;10.30;99.90
19522;DHT22;9905;52.126;5.596;2023-02-03T10:30:47;10.40;99.90
19522;DHT22;9905;52.126;5.596;2023-02-03T10:33:16;10.40;99.90
19522;DHT22;9905;52.126;5.596;2023-02-03T10:35:49;10.40;99.90
19522;DHT22;9905;52.126;5.596;2023-02-03T10:38:23;10.40;99.90
19522;DHT22;9905;52.126;5.596;2023-02-03T10:40:54;10.40;99.90
19522;DHT22;9905;52.126;5.596;2023-02-03T10:43:21;10.40;99.90
19522;DHT22;9905;52.126;5.596;2023-02-03T10:46:07;10.40;99.90
19522;DHT22;9905;52.126;5.596;2023-02-03T10:48:34;10.40;99.90
19522;DHT22;9905;52.126;5.596;2023-02-03T10:51:01;10.50;99.90
19522;DHT22;9905;52.126;5.596;2023-02-03T10:53:32;10.50;99.90
19522;DHT22;9905;52.126;5.596;2023-02-03T10:56:02;10.50;99.90
19522;DHT22;9905;52.126;5.596;2023-02-03T10:58:31;10.50;99.90
19522;DHT22;9905;52.126;5.596;2023-02-03T11:01:07;10.50;99.90
19522;DHT22;9905;52.126;5.596;2023-02-03T11:03:34;10.50;99.90
19522;DHT22;9905;52.126;5.596;2023-02-03T11:06:07;10.50;99.90
19522;DHT22;9905;52.126;5.596;2023-02-03T11:08:36;10.50;99.90
19522;DHT22;9905;52.126;5.596;2023-02-03T11:11:05;10.50;99.90
19522;DHT22;9905;52.126;5.596;2023-02-03T11:13:32;10.50;99.90
19522;DHT22;9905;52.126;5.596;2023-02-03T11:16:00;10.50;99.90
19522;DHT22;9905;52.126;5.596;2023-02-03T11:18:43;10.50;99.90
19522;DHT22;9905;52.126;5.596;2023-02-03T11:21:14;10.50;99.90
19522;DHT22;9905;52.126;5.596;2023-02-03T11:23:46;10.60;99.90
19522;DHT22;9905;52.126;5.596;2023-02-03T11:26:16;10.60;99.90
19522;DHT22;9905;52.126;5.596;2023-02-03T11:28:46;10.60;99.90
19522;DHT22;9905;52.126;5.596;2023-02-03T11:31:19;10.50;99.90
19522;DHT22;9905;52.126;5.596;2023-02-03T11:33:51;10.50;99.90
19522;DHT22;9905;52.126;5.596;2023-02-03T11:36:19;10.60;99.90
19522;DHT22;9905;52.126;5.596;2023-02-03T11:38:46;10.50;99.90
19522;DHT22;9905;52.126;5.596;2023-02-03T11:41:17;10.60;99.90
19522;DHT22;9905;52.126;5.596;2023-02-03T11:43:44;10.60;99.90
19522;DHT22;9905;52.126;5.596;2023-02-03T11:46:12;10.60;99.90
19522;DHT22;9905;52.126;5.596;2023-02-03T11:48:50;10.60;99.90
19522;DHT22;9905;52.126;5.596;2023-02-03T11:51:30;10.60;99.90
19522;DHT22;9905;52.126;5.596;2023-02-03T11:54:09;10.60;99.90
19522;DHT22;9905;52.126;5.596;2023-02-03T11:56:58;10.60;99.90
19522;DHT22;9905;52.126;5.596;2023-02-03T11:59:39;10.70;99.90
19522;DHT22;9905;52.126;5.596;2023-02-03T12:02:47;10.60;99.90
19522;DHT22;9905;52.126;5.596;2023-02-03T12:08:20;10.60;99.90
19522;DHT22;9905;52.126;5.596;2023-02-03T12:10:59;10.60;99.90
19522;DHT22;9905;52.126;5.596;2023-02-03T12:13:45;10.50;99.90
19522;DHT22;9905;52.126;5.596;2023-02-03T12:16:24;10.50;99.90
19522;DHT22;9905;52.126;5.596;2023-02-03T12:19:05;10.40;99.90
19522;DHT22;9905;52.126;5.596;2023-02-03T12:21:42;10.30;99.90
19522;DHT22;9905;52.126;5.596;2023-02-03T12:24:18;10.30;99.90
19522;DHT22;9905;52.126;5.596;2023-02-03T12:26:56;10.20;99.90
19522;DHT22;9905;52.126;5.596;2023-02-03T12:29:30;10.10;99.90
19522;DHT22;9905;52.126;5.596;2023-02-03T12:32:04;10.00;99.90
19522;DHT22;9905;52.126;5.596;2023-02-03T12:34:36;9.90;99.90
19522;DHT22;9905;52.126;5.596;2023-02-03T12:37:09;9.90;99.90
19522;DHT22;9905;52.126;5.596;2023-02-03T12:39:41;9.80;99.90
19522;DHT22;9905;52.126;5.596;2023-02-03T12:42:15;9.70;99.90
19522;DHT22;9905;52.126;5.596;2023-02-03T12:44:47;9.70;99.90
19522;DHT22;9905;52.126;5.596;2023-02-03T12:47:22;9.70;99.90
19522;DHT22;9905;52.126;5.596;2023-02-03T12:49:54;9.70;99.90
19522;DHT22;9905;52.126;5.596;2023-02-03T12:52:26;9.70;99.90
19522;DHT22;9905;52.126;5.596;2023-02-03T12:55:02;9.70;99.90
19522;DHT22;9905;52.126;5.596;2023-02-03T12:57:34;9.70;99.90
19522;DHT22;9905;52.126;5.596;2023-02-03T13:00:09;9.80;99.90
19522;DHT22;9905;52.126;5.596;2023-02-03T13:02:49;9.80;99.90
19522;DHT22;9905;52.126;5.596;2023-02-03T13:05:23;9.80;99.90
19522;DHT22;9905;52.126;5.596;2023-02-03T13:07:59;9.80;99.90
19522;DHT22;9905;52.126;5.596;2023-02-03T13:10:32;9.80;99.90
19522;DHT22;9905;52.126;5.596;2023-02-03T13:13:02;9.80;99.90
19522;DHT22;9905;52.126;5.596;2023-02-03T13:15:34;9.80;99.90
19522;DHT22;9905;52.126;5.596;2023-02-03T13:18:07;9.80;99.90
19522;DHT22;9905;52.126;5.596;2023-02-03T13:20:35;9.80;99.90
19522;DHT22;9905;52.126;5.596;2023-02-03T13:23:06;9.80;99.90
19522;DHT22;9905;52.126;5.596;2023-02-03T13:25:45;9.80;99.90
19522;DHT22;9905;52.126;5.596;2023-02-03T13:28:22;9.80;99.90
19522;DHT22;9905;52.126;5.596;2023-02-03T13:31:07;9.80;99.90
19522;DHT22;9905;52.126;5.596;2023-02-03T13:33:51;9.80;99.90
19522;DHT22;9905;52.126;5.596;2023-02-03T13:36:53;9.80;99.90
19522;DHT22;9905;52.126;5.596;2023-02-03T13:39:36;9.80;99.90
19522;DHT22;9905;52.126;5.596;2023-02-03T13:42:20;9.80;99.90
19522;DHT22;9905;52.126;5.596;2023-02-03T13:44:52;9.80;99.90
19522;DHT22;9905;52.126;5.596;2023-02-03T13:47:23;9.80;99.90
19522;DHT22;9905;52.126;5.596;2023-02-03T13:49:53;9.80;99.90
19522;DHT22;9905;52.126;5.596;2023-02-03T13:52:25;9.70;99.90
19522;DHT22;9905;52.126;5.596;2023-02-03T13:54:55;9.70;99.90
19522;DHT22;9905;52.126;5.596;2023-02-03T13:57:30;9.70;99.90
19522;DHT22;9905;52.126;5.596;2023-02-03T13:59:59;9.70;99.90
19522;DHT22;9905;52.126;5.596;2023-02-03T14:02:42;9.70;99.90
19522;DHT22;9905;52.126;5.596;2023-02-03T14:05:38;9.70;99.90
19522;DHT22;9905;52.126;5.596;2023-02-03T14:11:41;9.70;99.90
19522;DHT22;9905;52.126;5.596;2023-02-03T14:14:40;9.70;99.90
19522;DHT22;9905;52.126;5.596;2023-02-03T14:20:46;9.70;99.90
19522;DHT22;9905;52.126;5.596;2023-02-03T14:23:22;9.70;99.90
19522;DHT22;9905;52.126;5.596;2023-02-03T14:25:52;9.60;99.90
19522;DHT22;9905;52.126;5.596;2023-02-03T14:28:24;9.70;99.90
19522;DHT22;9905;52.126;5.596;2023-02-03T14:31:06;9.70;99.90
19522;DHT22;9905;52.126;5.596;2023-02-03T14:33:48;9.60;99.90
19522;DHT22;9905;52.126;5.596;2023-02-03T14:36:30;9.60;99.90
19522;DHT22;9905;52.126;5.596;2023-02-03T14:39:00;9.60;99.90
19522;DHT22;9905;52.126;5.596;2023-02-03T14:41:36;9.60;99.90
19522;DHT22;9905;52.126;5.596;2023-02-03T14:44:17;9.60;99.90
19522;DHT22;9905;52.126;5.596;2023-02-03T14:47:02;9.60;99.90
19522;DHT22;9905;52.126;5.596;2023-02-03T14:49:56;9.50;99.90
19522;DHT22;9905;52.126;5.596;2023-02-03T14:53:01;9.60;99.90
19522;DHT22;9905;52.126;5.596;2023-02-03T14:55:41;9.60;99.90
19522;DHT22;9905;52.126;5.596;2023-02-03T14:58:19;9.50;99.90
19522;DHT22;9905;52.126;5.596;2023-02-03T15:00:48;9.50;99.90
19522;DHT22;9905;52.126;5.596;2023-02-03T15:03:22;9.50;99.90
19522;DHT22;9905;52.126;5.596;2023-02-03T15:05:52;9.50;99.90
19522;DHT22;9905;52.126;5.596;2023-02-03T15:08:40;9.50;99.90
19522;DHT22;9905;52.126;5.596;2023-02-03T15:11:29;9.50;99.90
19522;DHT22;9905;52.126;5.596;2023-02-03T15:14:12;9.40;99.90
19522;DHT22;9905;52.126;5.596;2023-02-03T15:16:42;9.40;99.90
19522;DHT22;9905;52.126;5.596;2023-02-03T15:19:15;9.40;99.90
19522;DHT22;9905;52.126;5.596;2023-02-03T15:21:42;9.40;99.90
19522;DHT22;9905;52.126;5.596;2023-02-03T15:24:13;9.30;99.90
19522;DHT22;9905;52.126;5.596;2023-02-03T15:26:45;9.40;99.90
19522;DHT22;9905;52.126;5.596;2023-02-03T15:29:27;9.30;99.90
19522;DHT22;9905;52.126;5.596;2023-02-03T15:32:01;9.40;99.90
19522;DHT22;9905;52.126;5.596;2023-02-03T15:34:33;9.30;99.90
19522;DHT22;9905;52.126;5.596;2023-02-03T15:37:06;9.30;99.90
19522;DHT22;9905;52.126;5.596;2023-02-03T15:39:40;9.30;99.90
19522;DHT22;9905;52.126;5.596;2023-02-03T15:42:15;9.30;99.90
19522;DHT22;9905;52.126;5.596;2023-02-03T15:44:47;9.30;99.90
19522;DHT22;9905;52.126;5.596;2023-02-03T15:47:24;9.30;99.90
19522;DHT22;9905;52.126;5.596;2023-02-03T15:50:01;9.30;99.90
19522;DHT22;9905;52.126;5.596;2023-02-03T15:52:34;9.30;99.90
19522;DHT22;9905;52.126;5.596;2023-02-03T15:55:09;9.20;99.90
19522;DHT22;9905;52.126;5.596;2023-02-03T15:57:38;9.20;99.90
19522;DHT22;9905;52.126;5.596;2023-02-03T16:00:32;9.20;99.90
19522;DHT22;9905;52.126;5.596;2023-02-03T16:03:02;9.20;99.90
19522;DHT22;9905;52.126;5.596;2023-02-03T16:05:32;9.20;99.90
19522;DHT22;9905;52.126;5.596;2023-02-03T16:11:21;9.20;99.90
19522;DHT22;9905;52.126;5.596;2023-02-03T16:13:48;9.20;99.90
19522;DHT22;9905;52.126;5.596;2023-02-03T16:16:17;9.20;99.90
19522;DHT22;9905;52.126;5.596;2023-02-03T16:18:57;9.20;99.90
19522;DHT22;9905;52.126;5.596;2023-02-03T16:21:31;9.10;99.90
19522;DHT22;9905;52.126;5.596;2023-02-03T16:23:59;9.10;99.90
19522;DHT22;9905;52.126;5.596;2023-02-03T16:26:29;9.10;99.90
19522;DHT22;9905;52.126;5.596;2023-02-03T16:29:09;9.10;99.90
19522;DHT22;9905;52.126;5.596;2023-02-03T16:31:55;9.10;99.90
19522;DHT22;9905;52.126;5.596;2023-02-03T16:34:41;9.10;99.90
19522;DHT22;9905;52.126;5.596;2023-02-03T16:37:28;9.10;99.90
19522;DHT22;9905;52.126;5.596;2023-02-03T16:40:14;9.00;99.90